Time;durP1;ratioP1;P1;durP2;ratioP2;P2;SDS_P1;SDS_P2;PMS_P1;PMS_P2;Temp;Humidity;BMP_temperature;BMP_pressure;BME280_temperature;BME280_humidity;BME280_pressure;Samples;Min_cycle;Max_cycle;Signal;HPM_P1;HPM_P2
2023/03/25 00:01:07;;;;;;;;;;;;;;;6.08;81.96;99878.16;107065;1257;124731;-81
2023/03/25 00:03:40;;;;;;;;;;;;;;;6.09;81.95;99875.76;107257;1260;65567;-82
2023/03/25 00:06:09;;;;;;;;;;;;;;;6.10;82.22;99872.30;107307;1255;71236;-79
2023/03/25 00:08:36;;;;;;;;;;;;;;;6.12;82.30;99870.09;107602;1256;124619;-79
2023/03/25 00:11:05;;;;;;;;;;;;;;;6.13;82.43;99867.51;108235;1256;59650;-79
2023/03/25 00:13:33;;;;;;;;;;;;;;;6.14;82.55;99864.91;107257;1257;124927;-79
2023/03/25 00:16:00;;;;;;;;;;;;;;;6.16;82.72;99865.67;107648;1256;67055;-79
2023/03/25 00:18:34;;;;;;;;;;;;;;;6.17;82.79;99866.73;107670;1256;71063;-79
2023/03/25 00:21:01;;;;;;;;;;;;;;;6.18;82.80;99865.22;107622;1254;125086;-79
2023/03/25 00:23:28;;;;;;;;;;;;;;;6.19;82.96;99861.58;107396;1257;59814;-79
2023/03/25 00:25:59;;;;;;;;;;;;;;;6.19;82.98;99858.81;107444;1257;124587;-79
2023/03/25 00:28:30;;;;;;;;;;;;;;;6.20;83.03;99861.27;107505;1257;65822;-79
2023/03/25 00:31:00;;;;;;;;;;;;;;;6.20;82.98;99856.56;107320;1256;124877;-79
2023/03/25 00:33:27;;;;;;;;;;;;;;;6.19;82.99;99858.45;107347;1257;62089;-79
2023/03/25 00:36:00;;;;;;;;;;;;;;;6.19;83.06;99852.17;107485;1256;62926;-79
2023/03/25 00:38:34;;;;;;;;;;;;;;;6.19;83.09;99845.56;107511;1256;124572;-79
2023/03/25 00:41:27;;;;;;;;;;;;;;;6.18;83.16;99843.44;107647;1255;65810;-79
2023/03/25 00:43:55;;;;;;;;;;;;;;;6.18;83.18;99840.30;108902;1256;124682;-80
2023/03/25 00:46:22;;;;;;;;;;;;;;;6.18;83.26;99837.33;108211;1255;59837;-80
2023/03/25 00:48:51;;;;;;;;;;;;;;;6.17;83.22;99834.89;107687;1256;125524;-80
2023/03/25 00:51:20;;;;;;;;;;;;;;;6.18;83.22;99828.09;107994;1255;74947;-80
2023/03/25 00:53:51;;;;;;;;;;;;;;;6.18;83.25;99820.63;107966;1256;65524;-79
2023/03/25 00:56:18;;;;;;;;;;;;;;;6.18;83.14;99817.66;107813;1253;125062;-80
2023/03/25 00:58:45;;;;;;;;;;;;;;;6.17;83.18;99816.58;107944;1254;60872;-81
2023/03/25 01:01:13;;;;;;;;;;;;;;;6.16;83.16;99811.34;107762;1253;125113;-80
2023/03/25 01:03:42;;;;;;;;;;;;;;;6.15;83.17;99813.22;108064;1253;73473;-80
2023/03/25 01:06:13;;;;;;;;;;;;;;;6.15;83.23;99813.38;107766;1259;67084;-80
2023/03/25 01:08:40;;;;;;;;;;;;;;;6.13;83.22;99817.53;107392;1254;124770;-82
2023/03/25 01:11:15;;;;;;;;;;;;;;;6.12;83.19;99812.45;107475;1253;61272;-82
2023/03/25 01:13:42;;;;;;;;;;;;;;;6.12;83.23;99808.77;107344;1253;124596;-82
2023/03/25 01:16:09;;;;;;;;;;;;;;;6.12;83.28;99807.02;107188;1253;74685;-82
2023/03/25 01:18:43;;;;;;;;;;;;;;;6.12;83.24;99803.17;107587;1253;67024;-83
2023/03/25 01:21:10;;;;;;;;;;;;;;;6.12;83.33;99800.04;107427;1253;124846;-82
2023/03/25 01:23:37;;;;;;;;;;;;;;;6.12;83.34;99801.11;107620;1253;59276;-82
2023/03/25 01:26:05;;;;;;;;;;;;;;;6.13;83.54;99797.85;107778;1253;124697;-82
2023/03/25 01:28:33;;;;;;;;;;;;;;;6.16;83.70;99801.40;107447;1254;73021;-82
2023/03/25 01:31:03;;;;;;;;;;;;;;;6.17;83.68;99795.85;107390;1253;125613;-82
2023/03/25 01:33:33;;;;;;;;;;;;;;;6.19;83.71;99792.94;107544;1254;71415;-82
2023/03/25 01:36:01;;;;;;;;;;;;;;;6.20;83.75;99797.34;107551;1254;59971;-82
2023/03/25 01:38:29;;;;;;;;;;;;;;;6.20;83.70;99814.41;107483;1254;125283;-82
2023/03/25 01:40:56;;;;;;;;;;;;;;;6.20;83.73;99824.16;107740;1254;75505;-82
2023/03/25 01:43:23;;;;;;;;;;;;;;;6.20;83.67;99832.35;107448;1254;125524;-82
2023/03/25 01:45:50;;;;;;;;;;;;;;;6.19;83.66;99835.64;107776;1253;71723;-82
2023/03/25 01:48:19;;;;;;;;;;;;;;;6.21;83.81;99837.27;107593;1254;61160;-82
2023/03/25 01:50:53;;;;;;;;;;;;;;;6.23;83.82;99831.89;107620;1253;124711;-82
2023/03/25 01:53:20;;;;;;;;;;;;;;;6.24;83.80;99821.65;107426;1254;74531;-82
2023/03/25 01:55:47;;;;;;;;;;;;;;;6.25;83.87;99813.14;107517;1253;124835;-82
2023/03/25 01:58:17;;;;;;;;;;;;;;;6.25;83.77;99805.81;107553;1253;71443;-82
2023/03/25 02:00:53;;;;;;;;;;;;;;;6.23;83.71;99806.30;107641;1253;60879;-83
2023/03/25 02:03:20;;;;;;;;;;;;;;;6.21;83.65;99805.05;107768;1253;60552;-83
2023/03/25 02:05:50;;;;;;;;;;;;;;;6.21;83.74;99813.91;107697;1254;73656;-83
2023/03/25 02:08:17;;;;;;;;;;;;;;;6.21;83.70;99817.73;107714;1254;124568;-82
2023/03/25 02:10:45;;;;;;;;;;;;;;;6.21;83.85;99812.52;108197;1253;72391;-82
2023/03/25 02:13:14;;;;;;;;;;;;;;;6.21;83.78;99818.25;107335;1254;125140;-83
2023/03/25 02:15:58;;;;;;;;;;;;;;;6.21;83.93;99819.65;107545;1254;61242;-82
2023/03/25 02:18:33;;;;;;;;;;;;;;;6.22;83.95;99815.67;107590;1253;73405;-82
2023/03/25 02:21:25;;;;;;;;;;;;;;;6.22;83.84;99812.02;107361;1256;125353;-82
2023/03/25 02:23:58;;;;;;;;;;;;;;;6.21;83.81;99807.46;107522;1253;70298;-82
2023/03/25 02:26:26;;;;;;;;;;;;;;;6.21;83.89;99808.70;107287;1254;125111;-83
2023/03/25 02:29:04;;;;;;;;;;;;;;;6.21;83.84;99809.38;107385;1253;60476;-82
2023/03/25 02:31:35;;;;;;;;;;;;;;;6.20;83.73;99803.44;107273;1253;125128;-82
2023/03/25 02:34:21;;;;;;;;;;;;;;;6.19;83.78;99802.00;107218;1254;66893;-82
2023/03/25 02:36:55;;;;;;;;;;;;;;;6.17;83.69;99790.45;107590;1253;71249;-82
2023/03/25 02:39:39;;;;;;;;;;;;;;;6.15;83.70;99788.49;107798;1253;61276;-79
2023/03/25 02:42:18;;;;;;;;;;;;;;;6.15;83.85;99782.21;107780;1253;59999;-79
2023/03/25 02:44:47;;;;;;;;;;;;;;;6.16;83.83;99782.25;107687;1254;124848;-79
2023/03/25 02:47:17;;;;;;;;;;;;;;;6.17;83.84;99784.34;107451;1257;65207;-80
2023/03/25 02:49:46;;;;;;;;;;;;;;;6.17;83.92;99779.84;107234;1255;124805;-81
2023/03/25 02:52:19;;;;;;;;;;;;;;;6.20;84.03;99777.29;107430;1254;61369;-80
2023/03/25 02:54:46;;;;;;;;;;;;;;;6.20;83.95;99780.09;107462;1256;61330;-79
2023/03/25 02:57:14;;;;;;;;;;;;;;;6.21;83.99;99779.21;107396;1253;124391;-81
2023/03/25 02:59:42;;;;;;;;;;;;;;;6.21;83.93;99772.61;107432;1253;66850;-81
2023/03/25 03:02:10;;;;;;;;;;;;;;;6.20;83.83;99770.50;107337;1254;125006;-80
2023/03/25 03:04:51;;;;;;;;;;;;;;;6.20;83.90;99766.83;109098;1256;59446;-80
2023/03/25 03:07:22;;;;;;;;;;;;;;;6.20;83.86;99764.23;108953;1253;125207;-80
2023/03/25 03:09:51;;;;;;;;;;;;;;;6.20;83.78;99761.11;108257;1256;73410;-80
2023/03/25 03:12:23;;;;;;;;;;;;;;;6.21;83.83;99764.44;107424;1260;67196;-80
2023/03/25 03:14:59;;;;;;;;;;;;;;;6.23;83.74;99765.36;107139;1254;124615;-80
2023/03/25 03:17:26;;;;;;;;;;;;;;;6.25;83.78;99766.08;107475;1254;60045;-80
2023/03/25 03:20:25;;;;;;;;;;;;;;;6.25;83.68;99768.00;107263;1255;125175;-80
2023/03/25 03:23:22;;;;;;;;;;;;;;;6.25;83.63;99769.95;107011;1253;74393;-80
2023/03/25 03:25:51;;;;;;;;;;;;;;;6.25;83.56;99772.03;107691;1253;124797;-80
2023/03/25 03:28:18;;;;;;;;;;;;;;;6.24;83.52;99774.45;107802;1254;72625;-80
2023/03/25 03:30:47;;;;;;;;;;;;;;;6.23;83.34;99772.33;107393;1253;62153;-80
2023/03/25 03:33:16;;;;;;;;;;;;;;;6.22;83.35;99770.72;107266;1259;124710;-80
2023/03/25 03:35:49;;;;;;;;;;;;;;;6.19;83.30;99774.66;107409;1253;74702;-80
2023/03/25 03:38:18;;;;;;;;;;;;;;;6.17;83.27;99774.59;107221;1253;125387;-80
2023/03/25 03:40:48;;;;;;;;;;;;;;;6.15;83.24;99776.11;107379;1258;72401;-80
2023/03/25 03:43:23;;;;;;;;;;;;;;;6.14;83.11;99770.68;107149;1253;125201;-80
2023/03/25 03:46:01;;;;;;;;;;;;;;;6.13;83.20;99767.86;107605;1253;60674;-80
2023/03/25 03:48:33;;;;;;;;;;;;;;;6.12;83.31;99767.14;109083;1253;73249;-80
2023/03/25 03:51:10;;;;;;;;;;;;;;;6.12;83.33;99763.83;108990;1253;124621;-80
2023/03/25 03:53:39;;;;;;;;;;;;;;;6.13;83.32;99764.55;108932;1253;71411;-80
2023/03/25 03:56:11;;;;;;;;;;;;;;;6.14;83.35;99761.10;107533;1253;124915;-80
2023/03/25 03:58:41;;;;;;;;;;;;;;;6.15;83.37;99759.91;107396;1256;60084;-83
2023/03/25 04:01:26;;;;;;;;;;;;;;;6.16;83.37;99759.59;107900;1253;124889;-82
2023/03/25 04:03:57;;;;;;;;;;;;;;;6.18;83.46;99756.85;107564;1253;65865;-82
2023/03/25 04:06:57;;;;;;;;;;;;;;;6.20;83.43;99752.56;107301;1253;72354;-83
2023/03/25 04:09:26;;;;;;;;;;;;;;;6.21;83.39;99749.30;107162;1253;61456;-82
2023/03/25 04:11:55;;;;;;;;;;;;;;;6.22;83.43;99751.39;107378;1253;60159;-83
2023/03/25 04:14:22;;;;;;;;;;;;;;;6.23;83.37;99753.69;107377;1253;125052;-80
2023/03/25 04:16:52;;;;;;;;;;;;;;;6.23;83.41;99754.04;107827;1256;65794;-80
2023/03/25 04:19:18;;;;;;;;;;;;;;;6.23;83.25;99750.02;107775;1253;72482;-81
2023/03/25 04:21:48;;;;;;;;;;;;;;;6.22;83.22;99751.22;107490;1253;61178;-80
2023/03/25 04:24:18;;;;;;;;;;;;;;;6.23;83.13;99751.59;107417;1254;60848;-80
2023/03/25 04:26:46;;;;;;;;;;;;;;;6.23;83.21;99756.46;107178;1254;125358;-80
2023/03/25 04:29:14;;;;;;;;;;;;;;;6.22;83.22;99759.58;107262;1253;67048;-79
2023/03/25 04:31:49;;;;;;;;;;;;;;;6.20;83.00;99760.23;107296;1254;125917;-82
2023/03/25 04:34:35;;;;;;;;;;;;;;;6.18;82.96;99761.90;107266;1254;61094;-82
2023/03/25 04:37:02;;;;;;;;;;;;;;;6.16;82.90;99771.44;107192;1254;59987;-81
2023/03/25 04:39:31;;;;;;;;;;;;;;;6.13;82.78;99772.41;107272;1260;125107;-82
2023/03/25 04:42:05;;;;;;;;;;;;;;;6.11;82.80;99775.65;107217;1253;66222;-82
2023/03/25 04:44:38;;;;;;;;;;;;;;;6.09;82.72;99769.50;107447;1253;125002;-82
2023/03/25 04:47:06;;;;;;;;;;;;;;;6.08;82.82;99777.33;107521;1253;61200;-82
2023/03/25 04:49:33;;;;;;;;;;;;;;;6.10;82.91;99778.61;107335;1254;124933;-82
2023/03/25 04:52:03;;;;;;;;;;;;;;;6.30;83.44;99780.68;107439;1253;74741;-82
2023/03/25 04:54:31;;;;;;;;;;;;;;;6.71;83.92;99781.91;107374;1253;65817;-82
2023/03/25 04:57:04;;;;;;;;;;;;;;;7.00;83.67;99781.21;107181;1254;124759;-82
2023/03/25 04:59:32;;;;;;;;;;;;;;;7.19;82.85;99784.64;107176;1256;61250;-82
2023/03/25 05:02:01;;;;;;;;;;;;;;;7.30;82.34;99782.61;107186;1253;124731;-84
2023/03/25 05:04:29;;;;;;;;;;;;;;;7.37;81.97;99785.05;107234;1253;74712;-83
2023/03/25 05:07:04;;;;;;;;;;;;;;;7.44;81.71;99782.92;107030;1254;66897;-83
2023/03/25 05:09:53;;;;;;;;;;;;;;;7.48;81.41;99784.58;107299;1253;72689;-83
2023/03/25 05:12:22;;;;;;;;;;;;;;;7.51;81.23;99788.49;107195;1253;59978;-84
2023/03/25 05:15:10;;;;;;;;;;;;;;;7.54;81.01;99798.85;107142;1254;124541;-84
2023/03/25 05:17:38;;;;;;;;;;;;;;;7.54;80.70;99799.72;107425;1253;73191;-85
2023/03/25 05:20:34;;;;;;;;;;;;;;;7.56;80.62;99794.70;107019;1253;124815;-86
2023/03/25 05:23:10;;;;;;;;;;;;;;;7.59;80.64;99795.65;107326;1253;72726;-86
2023/03/25 05:25:39;;;;;;;;;;;;;;;7.64;80.57;99795.23;107275;1253;125510;-84
2023/03/25 05:28:12;;;;;;;;;;;;;;;7.67;80.56;99802.98;107385;1253;60073;-84
2023/03/25 05:30:40;;;;;;;;;;;;;;;7.73;80.67;99808.00;107492;1254;75110;-81
2023/03/25 05:33:09;;;;;;;;;;;;;;;7.78;80.61;99808.45;107659;1253;124973;-80
2023/03/25 05:35:37;;;;;;;;;;;;;;;7.83;80.66;99805.75;107718;1253;71070;-80
2023/03/25 05:38:04;;;;;;;;;;;;;;;7.86;80.64;99803.02;107435;1253;124024;-82
2023/03/25 05:40:34;;;;;;;;;;;;;;;7.88;80.64;99804.83;107386;1253;61248;-83
2023/03/25 05:43:02;;;;;;;;;;;;;;;7.88;80.59;99814.95;108918;1253;73795;-80
2023/03/25 05:45:29;;;;;;;;;;;;;;;7.89;80.74;99823.89;109147;1253;123672;-81
2023/03/25 05:47:58;;;;;;;;;;;;;;;7.92;80.73;99833.54;107686;1254;72661;-79
2023/03/25 05:50:26;;;;;;;;;;;;;;;7.95;80.85;99840.95;107749;1253;60317;-79
2023/03/25 05:52:54;;;;;;;;;;;;;;;7.94;80.80;99840.58;107999;1253;61202;-79
2023/03/25 05:55:21;;;;;;;;;;;;;;;7.94;80.76;99840.39;108095;1254;124659;-79
2023/03/25 05:57:48;;;;;;;;;;;;;;;7.94;80.89;99847.23;107975;1255;65734;-81
2023/03/25 06:00:17;;;;;;;;;;;;;;;7.94;80.88;99848.27;107610;1254;72828;-80
2023/03/25 06:02:44;;;;;;;;;;;;;;;7.96;80.95;99852.85;107789;1256;124545;-79
2023/03/25 06:05:14;;;;;;;;;;;;;;;7.98;81.14;99856.04;107749;1255;60263;-79
2023/03/25 06:07:42;;;;;;;;;;;;;;;8.03;81.08;99856.33;107844;1255;124213;-79
2023/03/25 06:10:09;;;;;;;;;;;;;;;8.08;81.14;99856.58;107957;1256;66911;-79
2023/03/25 06:12:37;;;;;;;;;;;;;;;8.11;81.11;99852.81;108084;1256;70420;-79
2023/03/25 06:15:06;;;;;;;;;;;;;;;8.12;80.99;99851.95;108764;1255;123977;-79
2023/03/25 06:17:33;;;;;;;;;;;;;;;8.11;81.00;99853.52;109015;1256;59819;-79
2023/03/25 06:20:05;;;;;;;;;;;;;;;8.12;81.08;99842.69;108569;1254;124802;-79
2023/03/25 06:22:32;;;;;;;;;;;;;;;8.14;81.09;99843.08;108232;1256;66860;-81
2023/03/25 06:25:02;;;;;;;;;;;;;;;8.18;81.06;99843.15;108027;1256;71963;-82
2023/03/25 06:27:33;;;;;;;;;;;;;;;8.20;80.96;99836.54;107778;1255;125104;-83
2023/03/25 06:30:09;;;;;;;;;;;;;;;8.22;80.98;99839.04;107837;1259;59581;-80
2023/03/25 06:32:36;;;;;;;;;;;;;;;8.27;80.97;99834.77;107635;1255;125611;-80
2023/03/25 06:35:06;;;;;;;;;;;;;;;8.32;80.99;99830.50;107842;1256;67065;-80
2023/03/25 06:37:33;;;;;;;;;;;;;;;8.38;81.03;99833.41;107307;1256;124913;-81
2023/03/25 06:40:00;;;;;;;;;;;;;;;8.45;81.05;99833.75;107579;1259;60611;-81
2023/03/25 06:42:27;;;;;;;;;;;;;;;8.51;81.08;99828.27;107755;1255;60371;-81
2023/03/25 06:44:54;;;;;;;;;;;;;;;8.60;81.05;99826.50;107674;1256;125499;-80
2023/03/25 06:47:22;;;;;;;;;;;;;;;8.68;81.08;99829.29;108101;1255;65536;-80
2023/03/25 06:49:49;;;;;;;;;;;;;;;8.79;81.10;99829.64;107547;1253;125232;-81
2023/03/25 06:52:16;;;;;;;;;;;;;;;8.88;80.93;99833.29;107721;1254;61186;-80
2023/03/25 06:54:43;;;;;;;;;;;;;;;8.97;80.94;99833.11;107814;1256;61273;-80
2023/03/25 06:57:10;;;;;;;;;;;;;;;9.07;80.74;99834.32;107775;1256;124748;-79
2023/03/25 06:59:37;;;;;;;;;;;;;;;9.14;80.50;99837.04;107803;1253;65611;-80
2023/03/25 07:02:04;;;;;;;;;;;;;;;9.19;80.39;99837.98;107567;1253;124576;-81
2023/03/25 07:04:32;;;;;;;;;;;;;;;9.25;80.19;99838.27;107656;1253;61344;-81
2023/03/25 07:06:59;;;;;;;;;;;;;;;9.31;80.06;99834.69;108005;1253;59664;-81
2023/03/25 07:09:27;;;;;;;;;;;;;;;9.37;80.03;99840.55;107952;1253;124413;-81
2023/03/25 07:11:55;;;;;;;;;;;;;;;9.44;79.93;99839.96;108147;1257;67656;-80
2023/03/25 07:14:21;;;;;;;;;;;;;;;9.51;79.73;99839.54;107538;1253;125522;-81
2023/03/25 07:16:49;;;;;;;;;;;;;;;9.58;79.73;99835.95;107621;1253;61539;-78
2023/03/25 07:19:16;;;;;;;;;;;;;;;9.69;79.67;99838.04;107466;1257;124839;-82
2023/03/25 07:21:44;;;;;;;;;;;;;;;9.85;79.82;99833.88;107454;1253;74719;-81
2023/03/25 07:24:19;;;;;;;;;;;;;;;10.10;80.06;99831.90;107592;1257;65776;-86
2023/03/25 07:26:52;;;;;;;;;;;;;;;10.41;80.08;99830.55;107362;1253;125701;-83
2023/03/25 07:29:19;;;;;;;;;;;;;;;10.64;79.57;99826.75;107850;1253;62169;-80
2023/03/25 07:31:46;;;;;;;;;;;;;;;10.83;79.20;99830.25;107479;1254;125514;-81
2023/03/25 07:34:14;;;;;;;;;;;;;;;10.95;78.82;99831.08;108174;1252;74718;-80
2023/03/25 07:36:41;;;;;;;;;;;;;;;11.06;78.46;99825.55;107815;1254;66040;-81
2023/03/25 07:39:08;;;;;;;;;;;;;;;11.13;78.03;99821.91;107795;1253;124557;-82
2023/03/25 07:41:35;;;;;;;;;;;;;;;11.15;77.70;99822.45;108127;1253;61244;-80
2023/03/25 07:44:02;;;;;;;;;;;;;;;11.14;77.40;99819.64;107923;1253;125882;-81
2023/03/25 07:46:29;;;;;;;;;;;;;;;11.09;77.11;99815.03;107971;1254;75459;-80
2023/03/25 07:48:56;;;;;;;;;;;;;;;11.03;76.92;99816.92;108287;1253;67093;-79
2023/03/25 07:51:24;;;;;;;;;;;;;;;10.97;76.68;99813.88;108036;1253;124684;-79
2023/03/25 07:53:51;;;;;;;;;;;;;;;10.94;76.73;99810.86;108098;1253;59421;-79
2023/03/25 07:56:18;;;;;;;;;;;;;;;10.97;76.84;99809.14;107647;1254;124497;-83
2023/03/25 07:58:45;;;;;;;;;;;;;;;10.94;76.60;99806.48;108153;1253;74659;-81
2023/03/25 08:01:12;;;;;;;;;;;;;;;10.90;76.47;99798.38;108022;1254;125405;-79
2023/03/25 08:03:42;;;;;;;;;;;;;;;10.91;76.61;99794.01;108033;1253;72494;-85
2023/03/25 08:06:11;;;;;;;;;;;;;;;10.94;76.72;99796.65;107782;1253;59599;-83
2023/03/25 08:08:38;;;;;;;;;;;;;;;10.97;76.75;99796.86;107987;1253;124817;-82
2023/03/25 08:11:05;;;;;;;;;;;;;;;11.02;76.73;99795.32;109093;1253;74430;-81
2023/03/25 08:13:32;;;;;;;;;;;;;;;11.05;76.72;99799.73;108684;1253;124939;-83
2023/03/25 08:15:59;;;;;;;;;;;;;;;11.09;76.68;99801.34;107528;1255;72628;-78
2023/03/25 08:18:31;;;;;;;;;;;;;;;11.19;76.79;99798.61;107789;1253;60989;-80
2023/03/25 08:20:58;;;;;;;;;;;;;;;11.32;76.70;99798.52;107833;1253;125909;-77
2023/03/25 08:23:25;;;;;;;;;;;;;;;11.48;76.77;99795.11;108093;1253;74384;-77
2023/03/25 08:25:52;;;;;;;;;;;;;;;11.68;76.63;99798.21;108135;1254;125384;-80
2023/03/25 08:28:25;;;;;;;;;;;;;;;11.85;76.34;99802.52;107998;1253;71807;-78
2023/03/25 08:30:53;;;;;;;;;;;;;;;12.07;76.23;99795.77;107768;1254;60703;-79
2023/03/25 08:33:21;;;;;;;;;;;;;;;12.29;75.99;99792.15;108305;1254;124614;-80
2023/03/25 08:35:49;;;;;;;;;;;;;;;12.51;75.79;99794.13;108072;1253;72957;-83
2023/03/25 08:38:17;;;;;;;;;;;;;;;12.68;75.23;99790.45;108015;1259;124534;-84
2023/03/25 08:40:44;;;;;;;;;;;;;;;12.85;74.98;99793.30;108204;1254;71405;-81
2023/03/25 08:43:11;;;;;;;;;;;;;;;12.98;74.56;99793.11;107502;1253;59363;-78
2023/03/25 08:45:38;;;;;;;;;;;;;;;13.11;74.18;99793.46;107473;1253;62284;-78
2023/03/25 08:48:05;;;;;;;;;;;;;;;13.19;73.84;99795.03;107932;1253;76632;-78
2023/03/25 08:50:32;;;;;;;;;;;;;;;13.27;73.62;99796.08;108142;1253;124410;-78
2023/03/25 08:52:59;;;;;;;;;;;;;;;13.35;73.26;99789.59;107876;1253;72696;-78
2023/03/25 08:55:26;;;;;;;;;;;;;;;13.37;72.70;99791.00;107811;1253;124204;-78
2023/03/25 08:57:56;;;;;;;;;;;;;;;13.41;72.60;99788.70;108161;1253;59338;-78
2023/03/25 09:00:26;;;;;;;;;;;;;;;13.52;72.62;99795.55;108247;1253;74691;-78
2023/03/25 09:02:58;;;;;;;;;;;;;;;13.72;72.61;99793.38;108184;1253;125295;-82
2023/03/25 09:05:28;;;;;;;;;;;;;;;13.88;72.35;99794.37;108251;1253;72772;-83
2023/03/25 09:07:58;;;;;;;;;;;;;;;14.08;72.20;99789.52;108003;1253;124941;-82
2023/03/25 09:10:26;;;;;;;;;;;;;;;14.24;71.84;99789.61;107729;1257;60975;-82
2023/03/25 09:12:52;;;;;;;;;;;;;;;14.39;71.57;99785.12;108015;1253;73377;-83
2023/03/25 09:15:20;;;;;;;;;;;;;;;14.59;71.47;99781.13;107817;1253;124233;-83
2023/03/25 09:17:47;;;;;;;;;;;;;;;14.73;71.05;99780.69;108160;1254;72396;-83
2023/03/25 09:20:14;;;;;;;;;;;;;;;14.75;70.76;99777.85;107713;1253;124416;-83
2023/03/25 09:22:41;;;;;;;;;;;;;;;14.84;70.71;99775.84;107883;1254;60377;-83
2023/03/25 09:25:08;;;;;;;;;;;;;;;14.96;70.58;99773.27;107708;1253;74726;-79
2023/03/25 09:27:35;;;;;;;;;;;;;;;15.09;70.32;99770.33;107822;1253;124103;-80
2023/03/25 09:30:03;;;;;;;;;;;;;;;15.20;70.11;99769.69;108080;1254;72702;-80
2023/03/25 09:32:29;;;;;;;;;;;;;;;15.38;70.00;99768.98;107842;1253;124634;-80
2023/03/25 09:34:56;;;;;;;;;;;;;;;15.53;69.70;99769.70;107736;1259;59401;-80
2023/03/25 09:37:24;;;;;;;;;;;;;;;15.66;69.22;99779.28;107922;1259;124718;-79
2023/03/25 09:39:51;;;;;;;;;;;;;;;15.67;68.51;99776.45;108159;1253;221658;-79
2023/03/25 09:42:37;;;;;;;;;;;;;;;15.69;68.39;99771.13;108325;1253;73166;-78
2023/03/25 09:45:04;;;;;;;;;;;;;;;15.70;67.74;99768.10;108109;1255;124008;-79
2023/03/25 09:47:32;;;;;;;;;;;;;;;15.63;67.60;99767.12;108190;1257;61461;-79
2023/03/25 09:50:00;;;;;;;;;;;;;;;15.60;67.44;99763.27;107665;1253;124093;-79
2023/03/25 09:52:28;;;;;;;;;;;;;;;15.63;67.39;99767.64;107688;1257;65697;-80
2023/03/25 09:54:59;;;;;;;;;;;;;;;15.62;67.23;99765.52;108035;1253;70079;-81
2023/03/25 09:57:27;;;;;;;;;;;;;;;15.71;67.21;99765.78;107893;1254;124124;-85
2023/03/25 09:59:55;;;;;;;;;;;;;;;15.76;67.09;99762.56;107681;1256;61324;-81
2023/03/25 10:02:41;;;;;;;;;;;;;;;15.89;67.13;99755.52;107504;1257;124140;-82
2023/03/25 10:05:27;;;;;;;;;;;;;;;16.04;66.96;99753.19;107666;1257;64914;-81
2023/03/25 10:08:05;;;;;;;;;;;;;;;16.23;66.90;99749.40;107611;1255;124365;-82
2023/03/25 10:10:37;;;;;;;;;;;;;;;16.45;66.54;99740.05;107603;1255;61455;-83
2023/03/25 10:13:27;;;;;;;;;;;;;;;16.55;65.90;99742.39;107502;1257;62051;-83
2023/03/25 10:15:57;;;;;;;;;;;;;;;16.46;65.37;99735.08;107674;1255;74641;-83
2023/03/25 10:18:33;;;;;;;;;;;;;;;16.34;64.93;99732.42;108689;1257;65441;-83
2023/03/25 10:21:01;;;;;;;;;;;;;;;16.28;64.83;99733.75;107556;1256;125081;-83
2023/03/25 10:23:34;;;;;;;;;;;;;;;16.26;64.68;99735.02;107754;1256;59463;-82
2023/03/25 10:26:12;;;;;;;;;;;;;;;16.22;64.48;99727.80;107684;1255;124915;-83
2023/03/25 10:28:43;;;;;;;;;;;;;;;16.16;64.61;99725.26;107512;1261;73418;-83
2023/03/25 10:31:14;;;;;;;;;;;;;;;16.24;65.03;99719.48;107650;1257;67064;-83
2023/03/25 10:33:50;;;;;;;;;;;;;;;16.55;65.33;99715.11;107437;1256;124561;-83
2023/03/25 10:36:18;;;;;;;;;;;;;;;16.94;65.26;99708.61;107536;1256;59492;-83
2023/03/25 10:38:53;;;;;;;;;;;;;;;17.30;64.92;99705.31;107291;1255;124684;-85
2023/03/25 10:41:30;;;;;;;;;;;;;;;17.57;64.32;99703.89;107411;1255;73564;-81
2023/03/25 10:43:57;;;;;;;;;;;;;;;17.80;63.70;99698.27;107267;1256;124317;-81
2023/03/25 10:46:33;;;;;;;;;;;;;;;17.77;62.82;99697.61;107644;1259;72912;-83
2023/03/25 10:49:00;;;;;;;;;;;;;;;17.74;62.46;99696.45;107441;1256;59729;-81
2023/03/25 10:51:35;;;;;;;;;;;;;;;17.69;62.02;99699.03;107525;1257;124786;-81
2023/03/25 10:54:02;;;;;;;;;;;;;;;17.31;61.36;99752.27;107388;1261;74751;-81
2023/03/25 10:56:42;;;;;;;;;;;;;;;16.72;60.50;99785.88;107645;1255;124069;-81
2023/03/25 10:59:19;;;;;;;;;;;;;;;15.85;60.50;99794.64;107620;1256;71182;-81
2023/03/25 11:01:46;;;;;;;;;;;;;;;14.73;61.40;99787.36;107248;1256;124857;-81
2023/03/25 11:04:13;;;;;;;;;;;;;;;13.80;62.10;99782.76;107519;1256;61493;-82
2023/03/25 11:06:41;;;;;;;;;;;;;;;13.12;62.87;99776.54;107953;1255;74539;-82
2023/03/25 11:09:14;;;;;;;;;;;;;;;12.62;64.03;99775.48;107700;1255;124965;-82
2023/03/25 11:11:43;;;;;;;;;;;;;;;12.33;65.16;99771.20;107448;1256;71649;-82
2023/03/25 11:14:10;;;;;;;;;;;;;;;12.23;66.16;99769.61;107458;1256;125044;-81
2023/03/25 11:16:56;;;;;;;;;;;;;;;12.35;67.02;99766.83;107788;1256;61010;-83
2023/03/25 11:19:29;;;;;;;;;;;;;;;12.52;67.54;99763.34;107685;1253;125001;-83
2023/03/25 11:22:01;;;;;;;;;;;;;;;12.59;67.71;99755.07;107712;1257;67102;-82
2023/03/25 11:24:31;;;;;;;;;;;;;;;12.70;67.90;99750.15;107517;1255;71762;-82
2023/03/25 11:27:00;;;;;;;;;;;;;;;12.84;68.46;99741.52;107424;1257;124603;-83
2023/03/25 11:29:29;;;;;;;;;;;;;;;12.98;68.46;99735.70;107326;1261;60655;-84
2023/03/25 11:31:57;;;;;;;;;;;;;;;13.09;68.64;99732.51;107561;1262;124530;-85
2023/03/25 11:34:32;;;;;;;;;;;;;;;13.23;68.85;99731.27;107600;1256;65547;-84
2023/03/25 11:37:00;;;;;;;;;;;;;;;13.35;68.72;99728.08;107366;1257;72499;-82
2023/03/25 11:39:38;;;;;;;;;;;;;;;13.43;68.71;99713.61;107377;1256;125192;-84
2023/03/25 11:42:09;;;;;;;;;;;;;;;13.53;68.80;99706.53;107827;1259;60663;-82
2023/03/25 11:44:36;;;;;;;;;;;;;;;13.67;68.81;99702.60;107625;1256;125225;-82
2023/03/25 11:47:06;;;;;;;;;;;;;;;13.81;68.90;99699.00;107414;1256;66963;-82
2023/03/25 11:49:40;;;;;;;;;;;;;;;13.93;68.86;99699.11;107290;1253;72570;-82
2023/03/25 11:52:08;;;;;;;;;;;;;;;14.03;69.09;99693.58;107500;1255;59890;-82
2023/03/25 11:54:35;;;;;;;;;;;;;;;14.06;68.68;99695.70;107798;1255;61242;-82
2023/03/25 11:57:04;;;;;;;;;;;;;;;13.96;68.72;99698.23;107560;1255;124814;-82
2023/03/25 11:59:38;;;;;;;;;;;;;;;13.85;68.83;99700.39;107547;1256;67055;-82
2023/03/25 12:02:24;;;;;;;;;;;;;;;13.72;68.61;99699.75;107616;1256;125210;-82
2023/03/25 12:04:54;;;;;;;;;;;;;;;13.52;68.37;99698.95;107737;1257;61057;-82
2023/03/25 12:07:23;;;;;;;;;;;;;;;13.39;68.14;99703.77;107450;1256;61001;-82
2023/03/25 12:09:54;;;;;;;;;;;;;;;13.27;68.15;99696.19;107331;1256;73806;-81
2023/03/25 12:12:25;;;;;;;;;;;;;;;13.26;68.31;99698.48;107400;1256;66919;-81
2023/03/25 12:14:55;;;;;;;;;;;;;;;13.27;68.44;99699.89;107403;1259;124363;-82
2023/03/25 12:17:28;;;;;;;;;;;;;;;13.27;68.59;99702.70;107441;1255;59339;-83
2023/03/25 12:20:04;;;;;;;;;;;;;;;13.26;68.34;99701.66;107365;1257;124738;-82
2023/03/25 12:22:34;;;;;;;;;;;;;;;13.25;68.49;99699.00;107475;1257;74731;-82
2023/03/25 12:25:08;;;;;;;;;;;;;;;13.26;68.26;99698.66;107366;1259;66863;-81
2023/03/25 12:27:40;;;;;;;;;;;;;;;13.28;68.29;99696.54;107265;1254;124417;-83
2023/03/25 12:30:24;;;;;;;;;;;;;;;13.37;68.35;99696.90;107465;1257;61599;-87
2023/03/25 12:33:01;;;;;;;;;;;;;;;13.49;68.32;99701.80;107518;1257;124172;-82
2023/03/25 12:35:42;;;;;;;;;;;;;;;13.77;68.42;99699.20;107494;1257;73713;-83
2023/03/25 12:38:15;;;;;;;;;;;;;;;13.99;67.85;99695.02;107435;1257;124695;-83
2023/03/25 12:40:58;;;;;;;;;;;;;;;14.08;67.31;99690.03;107565;1259;71199;-86
2023/03/25 12:43:35;;;;;;;;;;;;;;;14.10;67.13;99687.19;107531;1254;124249;-83
2023/03/25 12:46:21;;;;;;;;;;;;;;;14.04;66.77;99684.94;107578;1254;61529;-83
2023/03/25 12:49:06;;;;;;;;;;;;;;;14.14;67.08;99680.80;107695;1257;73505;-88
2023/03/25 12:51:48;;;;;;;;;;;;;;;14.40;67.20;99680.80;107695;1260;124169;-84
2023/03/25 12:54:23;;;;;;;;;;;;;;;14.49;66.55;99676.86;107624;1257;72351;-82
2023/03/25 12:56:59;;;;;;;;;;;;;;;14.48;66.01;99674.39;107534;1255;125339;-83